sensor_id;sensor_type;location;lat;lon;timestamp;P1;durP1;ratioP1;P2;durP2;ratioP2
25153;SDS011;47555;51.038;6.280;2023-02-28T00:02:19;7.43;;;5.13;;
25153;SDS011;47555;51.038;6.280;2023-02-28T00:04:45;7.15;;;5.30;;
25153;SDS011;47555;51.038;6.280;2023-02-28T00:07:17;9.85;;;5.53;;
25153;SDS011;47555;51.038;6.280;2023-02-28T00:09:43;7.45;;;5.22;;
25153;SDS011;47555;51.038;6.280;2023-02-28T00:12:09;9.40;;;5.50;;
25153;SDS011;47555;51.038;6.280;2023-02-28T00:14:35;9.85;;;5.72;;
25153;SDS011;47555;51.038;6.280;2023-02-28T00:17:01;12.70;;;5.80;;
25153;SDS011;47555;51.038;6.280;2023-02-28T00:19:27;12.77;;;5.70;;
25153;SDS011;47555;51.038;6.280;2023-02-28T00:21:52;8.57;;;5.57;;
25153;SDS011;47555;51.038;6.280;2023-02-28T00:24:18;8.35;;;5.50;;
25153;SDS011;47555;51.038;6.280;2023-02-28T00:26:43;6.90;;;5.38;;
25153;SDS011;47555;51.038;6.280;2023-02-28T00:29:09;8.88;;;5.30;;
25153;SDS011;47555;51.038;6.280;2023-02-28T00:31:38;10.85;;;5.15;;
25153;SDS011;47555;51.038;6.280;2023-02-28T00:34:03;14.15;;;5.32;;
25153;SDS011;47555;51.038;6.280;2023-02-28T00:36:29;6.55;;;4.35;;
25153;SDS011;47555;51.038;6.280;2023-02-28T00:38:54;7.22;;;4.10;;
25153;SDS011;47555;51.038;6.280;2023-02-28T00:41:20;6.43;;;4.18;;
25153;SDS011;47555;51.038;6.280;2023-02-28T00:43:45;6.93;;;4.40;;
25153;SDS011;47555;51.038;6.280;2023-02-28T00:46:11;6.93;;;4.35;;
25153;SDS011;47555;51.038;6.280;2023-02-28T00:48:37;5.70;;;4.55;;
25153;SDS011;47555;51.038;6.280;2023-02-28T00:51:03;8.55;;;4.60;;
25153;SDS011;47555;51.038;6.280;2023-02-28T00:53:29;5.97;;;4.00;;
25153;SDS011;47555;51.038;6.280;2023-02-28T00:55:55;5.28;;;4.78;;
25153;SDS011;47555;51.038;6.280;2023-02-28T00:58:21;6.60;;;5.22;;
25153;SDS011;47555;51.038;6.280;2023-02-28T01:00:46;7.50;;;4.70;;
25153;SDS011;47555;51.038;6.280;2023-02-28T01:03:15;6.07;;;4.10;;
25153;SDS011;47555;51.038;6.280;2023-02-28T01:05:41;5.78;;;3.92;;
25153;SDS011;47555;51.038;6.280;2023-02-28T01:08:07;7.30;;;4.82;;
25153;SDS011;47555;51.038;6.280;2023-02-28T01:10:32;6.85;;;4.65;;
25153;SDS011;47555;51.038;6.280;2023-02-28T01:12:58;8.60;;;5.00;;
25153;SDS011;47555;51.038;6.280;2023-02-28T01:15:24;8.90;;;4.28;;
25153;SDS011;47555;51.038;6.280;2023-02-28T01:17:50;9.40;;;4.72;;
25153;SDS011;47555;51.038;6.280;2023-02-28T01:20:15;8.98;;;4.75;;
25153;SDS011;47555;51.038;6.280;2023-02-28T01:22:41;6.90;;;4.80;;
25153;SDS011;47555;51.038;6.280;2023-02-28T01:25:07;7.35;;;4.45;;
25153;SDS011;47555;51.038;6.280;2023-02-28T01:27:33;6.97;;;4.88;;
25153;SDS011;47555;51.038;6.280;2023-02-28T01:29:58;8.82;;;4.85;;
25153;SDS011;47555;51.038;6.280;2023-02-28T01:32:24;7.47;;;4.93;;
25153;SDS011;47555;51.038;6.280;2023-02-28T01:34:49;7.90;;;5.32;;
25153;SDS011;47555;51.038;6.280;2023-02-28T01:37:15;8.80;;;4.70;;
25153;SDS011;47555;51.038;6.280;2023-02-28T01:39:41;7.25;;;5.00;;
25153;SDS011;47555;51.038;6.280;2023-02-28T01:42:08;5.95;;;4.53;;
25153;SDS011;47555;51.038;6.280;2023-02-28T01:47:38;6.47;;;4.20;;
25153;SDS011;47555;51.038;6.280;2023-02-28T01:50:09;5.82;;;4.60;;
25153;SDS011;47555;51.038;6.280;2023-02-28T01:52:39;5.95;;;4.65;;
25153;SDS011;47555;51.038;6.280;2023-02-28T01:55:06;8.95;;;4.63;;
25153;SDS011;47555;51.038;6.280;2023-02-28T01:57:34;7.15;;;4.07;;
25153;SDS011;47555;51.038;6.280;2023-02-28T02:00:09;6.20;;;4.47;;
25153;SDS011;47555;51.038;6.280;2023-02-28T02:02:38;10.95;;;4.70;;
25153;SDS011;47555;51.038;6.280;2023-02-28T02:05:15;5.88;;;4.47;;
25153;SDS011;47555;51.038;6.280;2023-02-28T02:07:43;11.77;;;4.78;;
25153;SDS011;47555;51.038;6.280;2023-02-28T02:13:01;5.45;;;4.10;;
25153;SDS011;47555;51.038;6.280;2023-02-28T02:15:32;8.68;;;5.00;;
25153;SDS011;47555;51.038;6.280;2023-02-28T02:18:13;6.47;;;4.45;;
25153;SDS011;47555;51.038;6.280;2023-02-28T02:26:37;5.05;;;3.70;;
25153;SDS011;47555;51.038;6.280;2023-02-28T02:40:12;8.20;;;4.60;;
25153;SDS011;47555;51.038;6.280;2023-02-28T02:42:51;6.63;;;4.35;;
25153;SDS011;47555;51.038;6.280;2023-02-28T02:45:38;7.18;;;5.03;;
25153;SDS011;47555;51.038;6.280;2023-02-28T02:48:10;8.38;;;5.40;;
25153;SDS011;47555;51.038;6.280;2023-02-28T02:50:39;9.10;;;6.15;;
25153;SDS011;47555;51.038;6.280;2023-02-28T02:53:12;15.25;;;6.28;;
25153;SDS011;47555;51.038;6.280;2023-02-28T02:55:43;9.80;;;6.13;;
25153;SDS011;47555;51.038;6.280;2023-02-28T02:58:13;10.93;;;7.35;;
25153;SDS011;47555;51.038;6.280;2023-02-28T03:00:49;10.73;;;6.22;;
25153;SDS011;47555;51.038;6.280;2023-02-28T03:03:20;9.82;;;6.45;;
25153;SDS011;47555;51.038;6.280;2023-02-28T03:05:54;10.15;;;6.05;;
25153;SDS011;47555;51.038;6.280;2023-02-28T03:08:24;7.43;;;6.13;;
25153;SDS011;47555;51.038;6.280;2023-02-28T03:10:51;11.10;;;6.85;;
25153;SDS011;47555;51.038;6.280;2023-02-28T03:19:00;8.38;;;6.00;;
25153;SDS011;47555;51.038;6.280;2023-02-28T03:21:40;10.82;;;6.55;;
25153;SDS011;47555;51.038;6.280;2023-02-28T03:26:39;9.63;;;6.68;;
25153;SDS011;47555;51.038;6.280;2023-02-28T03:29:18;11.15;;;6.38;;
25153;SDS011;47555;51.038;6.280;2023-02-28T03:31:58;12.18;;;6.45;;
25153;SDS011;47555;51.038;6.280;2023-02-28T03:34:41;14.95;;;6.78;;
25153;SDS011;47555;51.038;6.280;2023-02-28T03:37:13;11.23;;;6.50;;
25153;SDS011;47555;51.038;6.280;2023-02-28T03:39:51;9.00;;;6.20;;
25153;SDS011;47555;51.038;6.280;2023-02-28T03:42:22;8.85;;;6.28;;
25153;SDS011;47555;51.038;6.280;2023-02-28T03:44:52;13.65;;;7.50;;
25153;SDS011;47555;51.038;6.280;2023-02-28T03:47:29;9.73;;;7.25;;
25153;SDS011;47555;51.038;6.280;2023-02-28T03:50:17;12.60;;;7.28;;
25153;SDS011;47555;51.038;6.280;2023-02-28T03:53:32;13.38;;;6.43;;
25153;SDS011;47555;51.038;6.280;2023-02-28T03:55:48;11.02;;;6.30;;
25153;SDS011;47555;51.038;6.280;2023-02-28T03:58:24;12.07;;;6.57;;
25153;SDS011;47555;51.038;6.280;2023-02-28T04:01:19;11.63;;;6.88;;
25153;SDS011;47555;51.038;6.280;2023-02-28T04:03:49;10.57;;;6.57;;
25153;SDS011;47555;51.038;6.280;2023-02-28T04:06:16;10.55;;;6.65;;
25153;SDS011;47555;51.038;6.280;2023-02-28T04:08:44;11.13;;;6.43;;
25153;SDS011;47555;51.038;6.280;2023-02-28T04:13:57;9.10;;;5.90;;
25153;SDS011;47555;51.038;6.280;2023-02-28T04:16:23;11.95;;;6.47;;
25153;SDS011;47555;51.038;6.280;2023-02-28T04:18:49;10.65;;;6.93;;
25153;SDS011;47555;51.038;6.280;2023-02-28T04:21:14;10.63;;;5.97;;
25153;SDS011;47555;51.038;6.280;2023-02-28T04:23:40;9.30;;;6.28;;
25153;SDS011;47555;51.038;6.280;2023-02-28T04:26:05;14.65;;;6.13;;
25153;SDS011;47555;51.038;6.280;2023-02-28T04:28:31;11.38;;;5.82;;
25153;SDS011;47555;51.038;6.280;2023-02-28T04:30:59;11.00;;;6.43;;
25153;SDS011;47555;51.038;6.280;2023-02-28T04:33:30;12.48;;;6.88;;
25153;SDS011;47555;51.038;6.280;2023-02-28T04:36:04;11.00;;;5.90;;
25153;SDS011;47555;51.038;6.280;2023-02-28T04:38:32;9.85;;;5.68;;
25153;SDS011;47555;51.038;6.280;2023-02-28T04:41:02;8.20;;;5.97;;
25153;SDS011;47555;51.038;6.280;2023-02-28T04:43:28;7.47;;;5.78;;
25153;SDS011;47555;51.038;6.280;2023-02-28T04:45:55;10.55;;;6.65;;
25153;SDS011;47555;51.038;6.280;2023-02-28T04:48:22;8.18;;;5.45;;
25153;SDS011;47555;51.038;6.280;2023-02-28T04:50:49;11.82;;;5.70;;
25153;SDS011;47555;51.038;6.280;2023-02-28T04:53:15;6.95;;;5.35;;
25153;SDS011;47555;51.038;6.280;2023-02-28T04:55:40;10.10;;;5.93;;
25153;SDS011;47555;51.038;6.280;2023-02-28T04:58:06;8.57;;;5.28;;
25153;SDS011;47555;51.038;6.280;2023-02-28T05:00:32;9.02;;;5.25;;
25153;SDS011;47555;51.038;6.280;2023-02-28T05:02:57;10.00;;;5.47;;
25153;SDS011;47555;51.038;6.280;2023-02-28T05:05:23;8.52;;;5.93;;
25153;SDS011;47555;51.038;6.280;2023-02-28T05:07:48;7.30;;;5.05;;
25153;SDS011;47555;51.038;6.280;2023-02-28T05:10:18;8.40;;;5.90;;
25153;SDS011;47555;51.038;6.280;2023-02-28T05:12:44;8.48;;;5.97;;
25153;SDS011;47555;51.038;6.280;2023-02-28T05:15:13;9.27;;;5.80;;
25153;SDS011;47555;51.038;6.280;2023-02-28T05:17:39;9.50;;;5.82;;
25153;SDS011;47555;51.038;6.280;2023-02-28T05:20:06;10.52;;;5.50;;
25153;SDS011;47555;51.038;6.280;2023-02-28T05:22:32;9.23;;;4.90;;
25153;SDS011;47555;51.038;6.280;2023-02-28T05:24:57;10.32;;;5.50;;
25153;SDS011;47555;51.038;6.280;2023-02-28T05:27:23;8.48;;;5.50;;
25153;SDS011;47555;51.038;6.280;2023-02-28T05:29:48;8.98;;;5.90;;
25153;SDS011;47555;51.038;6.280;2023-02-28T05:32:16;7.40;;;4.90;;
25153;SDS011;47555;51.038;6.280;2023-02-28T05:34:42;8.35;;;4.93;;
25153;SDS011;47555;51.038;6.280;2023-02-28T05:37:13;6.72;;;4.43;;
25153;SDS011;47555;51.038;6.280;2023-02-28T05:39:40;7.72;;;5.15;;
25153;SDS011;47555;51.038;6.280;2023-02-28T05:42:06;8.35;;;5.47;;
25153;SDS011;47555;51.038;6.280;2023-02-28T05:44:33;8.70;;;4.85;;
25153;SDS011;47555;51.038;6.280;2023-02-28T05:46:58;7.22;;;4.85;;
25153;SDS011;47555;51.038;6.280;2023-02-28T05:49:24;9.02;;;6.15;;
25153;SDS011;47555;51.038;6.280;2023-02-28T05:51:50;7.35;;;5.00;;
25153;SDS011;47555;51.038;6.280;2023-02-28T05:54:15;7.63;;;4.70;;
25153;SDS011;47555;51.038;6.280;2023-02-28T05:56:41;6.18;;;4.78;;
25153;SDS011;47555;51.038;6.280;2023-02-28T05:59:09;6.63;;;4.88;;
25153;SDS011;47555;51.038;6.280;2023-02-28T06:01:39;6.38;;;4.63;;
25153;SDS011;47555;51.038;6.280;2023-02-28T06:04:07;6.30;;;4.50;;
25153;SDS011;47555;51.038;6.280;2023-02-28T06:06:35;7.80;;;5.78;;
25153;SDS011;47555;51.038;6.280;2023-02-28T06:09:01;8.20;;;5.15;;
25153;SDS011;47555;51.038;6.280;2023-02-28T06:11:30;6.70;;;4.82;;
25153;SDS011;47555;51.038;6.280;2023-02-28T06:13:56;7.40;;;4.57;;
25153;SDS011;47555;51.038;6.280;2023-02-28T06:16:24;6.55;;;4.95;;
25153;SDS011;47555;51.038;6.280;2023-02-28T06:18:50;10.25;;;5.28;;
25153;SDS011;47555;51.038;6.280;2023-02-28T06:21:17;10.43;;;5.18;;
25153;SDS011;47555;51.038;6.280;2023-02-28T06:23:43;11.18;;;5.93;;
25153;SDS011;47555;51.038;6.280;2023-02-28T06:26:08;9.55;;;5.68;;
25153;SDS011;47555;51.038;6.280;2023-02-28T06:28:34;8.73;;;5.55;;
25153;SDS011;47555;51.038;6.280;2023-02-28T06:31:05;9.25;;;5.53;;
25153;SDS011;47555;51.038;6.280;2023-02-28T06:33:35;7.20;;;5.78;;
25153;SDS011;47555;51.038;6.280;2023-02-28T06:36:01;12.98;;;6.18;;
25153;SDS011;47555;51.038;6.280;2023-02-28T06:38:27;8.68;;;6.18;;
25153;SDS011;47555;51.038;6.280;2023-02-28T06:40:53;11.15;;;6.55;;
25153;SDS011;47555;51.038;6.280;2023-02-28T06:43:20;10.55;;;6.45;;
25153;SDS011;47555;51.038;6.280;2023-02-28T06:45:47;10.35;;;5.50;;
25153;SDS011;47555;51.038;6.280;2023-02-28T06:48:12;9.35;;;5.65;;
25153;SDS011;47555;51.038;6.280;2023-02-28T06:50:38;8.60;;;6.28;;
25153;SDS011;47555;51.038;6.280;2023-02-28T06:53:03;9.18;;;5.85;;
25153;SDS011;47555;51.038;6.280;2023-02-28T06:55:29;9.90;;;4.95;;
25153;SDS011;47555;51.038;6.280;2023-02-28T06:57:55;10.30;;;5.03;;
25153;SDS011;47555;51.038;6.280;2023-02-28T07:00:20;9.27;;;5.18;;
25153;SDS011;47555;51.038;6.280;2023-02-28T07:02:46;5.85;;;5.00;;
25153;SDS011;47555;51.038;6.280;2023-02-28T07:05:12;8.77;;;4.90;;
25153;SDS011;47555;51.038;6.280;2023-02-28T07:07:38;8.60;;;4.80;;
25153;SDS011;47555;51.038;6.280;2023-02-28T07:10:08;7.03;;;4.53;;
25153;SDS011;47555;51.038;6.280;2023-02-28T07:12:38;9.82;;;5.03;;
25153;SDS011;47555;51.038;6.280;2023-02-28T07:15:04;7.40;;;5.03;;
25153;SDS011;47555;51.038;6.280;2023-02-28T07:17:30;8.38;;;4.93;;
25153;SDS011;47555;51.038;6.280;2023-02-28T07:19:56;8.68;;;5.32;;
25153;SDS011;47555;51.038;6.280;2023-02-28T07:22:22;7.45;;;4.35;;
25153;SDS011;47555;51.038;6.280;2023-02-28T07:24:47;6.10;;;4.40;;
25153;SDS011;47555;51.038;6.280;2023-02-28T07:27:13;8.15;;;4.45;;
25153;SDS011;47555;51.038;6.280;2023-02-28T07:29:48;6.90;;;4.60;;
25153;SDS011;47555;51.038;6.280;2023-02-28T07:32:18;7.80;;;4.20;;
25153;SDS011;47555;51.038;6.280;2023-02-28T07:34:44;8.93;;;4.70;;
25153;SDS011;47555;51.038;6.280;2023-02-28T07:37:10;8.23;;;4.85;;
25153;SDS011;47555;51.038;6.280;2023-02-28T07:39:35;5.78;;;4.45;;
25153;SDS011;47555;51.038;6.280;2023-02-28T07:42:04;7.80;;;4.30;;
25153;SDS011;47555;51.038;6.280;2023-02-28T07:44:31;10.18;;;4.65;;
25153;SDS011;47555;51.038;6.280;2023-02-28T07:46:56;8.38;;;5.50;;
25153;SDS011;47555;51.038;6.280;2023-02-28T07:49:22;8.88;;;5.53;;
25153;SDS011;47555;51.038;6.280;2023-02-28T07:51:48;12.50;;;5.30;;
25153;SDS011;47555;51.038;6.280;2023-02-28T07:54:14;8.48;;;5.38;;
25153;SDS011;47555;51.038;6.280;2023-02-28T07:56:39;6.72;;;4.38;;
25153;SDS011;47555;51.038;6.280;2023-02-28T07:59:05;6.40;;;4.72;;
25153;SDS011;47555;51.038;6.280;2023-02-28T08:01:30;7.57;;;4.47;;
25153;SDS011;47555;51.038;6.280;2023-02-28T08:03:56;9.52;;;5.10;;
25153;SDS011;47555;51.038;6.280;2023-02-28T08:06:24;5.13;;;4.18;;
25153;SDS011;47555;51.038;6.280;2023-02-28T08:08:52;5.78;;;4.45;;
25153;SDS011;47555;51.038;6.280;2023-02-28T08:11:18;6.10;;;4.47;;
25153;SDS011;47555;51.038;6.280;2023-02-28T08:13:44;8.77;;;4.82;;
25153;SDS011;47555;51.038;6.280;2023-02-28T08:16:11;6.90;;;4.53;;
25153;SDS011;47555;51.038;6.280;2023-02-28T08:18:40;5.18;;;4.13;;
25153;SDS011;47555;51.038;6.280;2023-02-28T08:21:06;5.20;;;3.88;;
25153;SDS011;47555;51.038;6.280;2023-02-28T08:23:33;6.00;;;3.75;;
25153;SDS011;47555;51.038;6.280;2023-02-28T08:25:58;5.70;;;3.90;;
25153;SDS011;47555;51.038;6.280;2023-02-28T08:28:24;6.03;;;3.70;;
25153;SDS011;47555;51.038;6.280;2023-02-28T08:30:49;6.70;;;3.80;;
25153;SDS011;47555;51.038;6.280;2023-02-28T08:33:15;6.22;;;4.00;;
25153;SDS011;47555;51.038;6.280;2023-02-28T08:35:41;6.20;;;3.83;;
25153;SDS011;47555;51.038;6.280;2023-02-28T08:38:06;5.97;;;3.50;;
25153;SDS011;47555;51.038;6.280;2023-02-28T08:40:32;6.93;;;3.97;;
25153;SDS011;47555;51.038;6.280;2023-02-28T08:42:57;8.05;;;4.43;;
25153;SDS011;47555;51.038;6.280;2023-02-28T08:45:24;5.22;;;3.63;;
25153;SDS011;47555;51.038;6.280;2023-02-28T08:47:50;5.57;;;3.90;;
25153;SDS011;47555;51.038;6.280;2023-02-28T08:50:17;4.80;;;3.60;;
25153;SDS011;47555;51.038;6.280;2023-02-28T08:52:43;7.22;;;3.90;;
25153;SDS011;47555;51.038;6.280;2023-02-28T08:55:09;4.65;;;3.65;;
25153;SDS011;47555;51.038;6.280;2023-02-28T08:57:35;5.57;;;3.83;;
25153;SDS011;47555;51.038;6.280;2023-02-28T09:00:00;5.93;;;4.20;;
25153;SDS011;47555;51.038;6.280;2023-02-28T09:02:29;7.18;;;3.65;;
25153;SDS011;47555;51.038;6.280;2023-02-28T09:04:58;9.00;;;4.10;;
25153;SDS011;47555;51.038;6.280;2023-02-28T09:07:24;6.22;;;3.60;;
25153;SDS011;47555;51.038;6.280;2023-02-28T09:09:50;3.45;;;3.03;;
25153;SDS011;47555;51.038;6.280;2023-02-28T09:12:19;3.80;;;2.80;;
25153;SDS011;47555;51.038;6.280;2023-02-28T09:14:48;4.72;;;3.22;;
25153;SDS011;47555;51.038;6.280;2023-02-28T09:17:14;6.07;;;2.72;;
25153;SDS011;47555;51.038;6.280;2023-02-28T09:19:40;3.03;;;2.40;;
25153;SDS011;47555;51.038;6.280;2023-02-28T09:22:05;3.22;;;2.30;;
25153;SDS011;47555;51.038;6.280;2023-02-28T09:24:31;2.45;;;2.15;;
25153;SDS011;47555;51.038;6.280;2023-02-28T09:26:56;5.78;;;2.00;;
25153;SDS011;47555;51.038;6.280;2023-02-28T09:29:22;3.95;;;2.15;;
25153;SDS011;47555;51.038;6.280;2023-02-28T09:31:47;2.22;;;2.00;;
25153;SDS011;47555;51.038;6.280;2023-02-28T09:34:13;3.05;;;2.20;;
25153;SDS011;47555;51.038;6.280;2023-02-28T09:36:39;2.58;;;2.10;;
25153;SDS011;47555;51.038;6.280;2023-02-28T09:39:04;2.95;;;1.60;;
25153;SDS011;47555;51.038;6.280;2023-02-28T09:41:36;2.10;;;2.00;;
25153;SDS011;47555;51.038;6.280;2023-02-28T09:44:13;3.42;;;2.28;;
25153;SDS011;47555;51.038;6.280;2023-02-28T09:46:48;4.25;;;2.20;;
25153;SDS011;47555;51.038;6.280;2023-02-28T09:49:19;2.53;;;1.70;;
25153;SDS011;47555;51.038;6.280;2023-02-28T09:51:51;3.08;;;1.83;;
25153;SDS011;47555;51.038;6.280;2023-02-28T09:54:24;3.35;;;2.17;;
25153;SDS011;47555;51.038;6.280;2023-02-28T09:57:06;3.25;;;2.10;;
25153;SDS011;47555;51.038;6.280;2023-02-28T10:02:21;2.10;;;1.80;;
25153;SDS011;47555;51.038;6.280;2023-02-28T10:05:15;3.85;;;1.90;;
25153;SDS011;47555;51.038;6.280;2023-02-28T10:07:53;3.03;;;1.67;;
25153;SDS011;47555;51.038;6.280;2023-02-28T10:13:00;2.53;;;1.65;;
25153;SDS011;47555;51.038;6.280;2023-02-28T10:15:30;3.67;;;1.83;;
25153;SDS011;47555;51.038;6.280;2023-02-28T10:17:58;2.13;;;1.40;;
25153;SDS011;47555;51.038;6.280;2023-02-28T10:20:28;2.22;;;1.73;;
25153;SDS011;47555;51.038;6.280;2023-02-28T10:25:39;4.70;;;1.60;;
25153;SDS011;47555;51.038;6.280;2023-02-28T10:28:13;2.92;;;1.80;;
25153;SDS011;47555;51.038;6.280;2023-02-28T10:30:41;2.92;;;1.48;;
25153;SDS011;47555;51.038;6.280;2023-02-28T10:33:15;1.85;;;1.75;;
25153;SDS011;47555;51.038;6.280;2023-02-28T10:35:50;2.72;;;1.77;;
25153;SDS011;47555;51.038;6.280;2023-02-28T10:38:33;2.08;;;1.90;;
25153;SDS011;47555;51.038;6.280;2023-02-28T10:41:08;1.60;;;1.50;;
25153;SDS011;47555;51.038;6.280;2023-02-28T10:43:41;4.00;;;2.05;;
25153;SDS011;47555;51.038;6.280;2023-02-28T10:48:39;3.08;;;1.98;;
25153;SDS011;47555;51.038;6.280;2023-02-28T10:51:14;2.03;;;1.70;;
25153;SDS011;47555;51.038;6.280;2023-02-28T10:53:51;2.92;;;2.10;;
25153;SDS011;47555;51.038;6.280;2023-02-28T10:56:18;2.40;;;2.13;;
25153;SDS011;47555;51.038;6.280;2023-02-28T11:03:55;2.30;;;2.00;;
25153;SDS011;47555;51.038;6.280;2023-02-28T11:06:23;3.65;;;2.08;;
25153;SDS011;47555;51.038;6.280;2023-02-28T11:09:02;4.47;;;2.33;;
25153;SDS011;47555;51.038;6.280;2023-02-28T11:11:43;2.75;;;2.35;;
25153;SDS011;47555;51.038;6.280;2023-02-28T11:14:19;4.72;;;2.35;;
25153;SDS011;47555;51.038;6.280;2023-02-28T11:16:47;2.72;;;2.20;;
25153;SDS011;47555;51.038;6.280;2023-02-28T11:19:22;2.25;;;2.05;;
25153;SDS011;47555;51.038;6.280;2023-02-28T11:21:57;2.65;;;1.80;;
25153;SDS011;47555;51.038;6.280;2023-02-28T11:26:56;3.70;;;2.60;;
25153;SDS011;47555;51.038;6.280;2023-02-28T11:29:26;2.55;;;2.33;;
25153;SDS011;47555;51.038;6.280;2023-02-28T11:32:00;2.95;;;2.65;;
25153;SDS011;47555;51.038;6.280;2023-02-28T11:38:01;2.38;;;2.17;;
25153;SDS011;47555;51.038;6.280;2023-02-28T11:40:36;3.20;;;2.13;;
25153;SDS011;47555;51.038;6.280;2023-02-28T11:46:44;2.70;;;2.45;;
25153;SDS011;47555;51.038;6.280;2023-02-28T11:51:57;3.72;;;2.28;;
25153;SDS011;47555;51.038;6.280;2023-02-28T11:55:08;2.67;;;2.47;;
25153;SDS011;47555;51.038;6.280;2023-02-28T11:57:47;3.05;;;2.25;;
25153;SDS011;47555;51.038;6.280;2023-02-28T12:00:38;3.17;;;2.60;;
25153;SDS011;47555;51.038;6.280;2023-02-28T12:05:58;3.45;;;2.45;;
25153;SDS011;47555;51.038;6.280;2023-02-28T12:08:41;4.10;;;2.47;;
25153;SDS011;47555;51.038;6.280;2023-02-28T12:27:31;5.88;;;2.40;;
25153;SDS011;47555;51.038;6.280;2023-02-28T12:30:03;2.45;;;2.20;;
25153;SDS011;47555;51.038;6.280;2023-02-28T12:32:41;2.80;;;2.40;;
25153;SDS011;47555;51.038;6.280;2023-02-28T12:40:20;4.25;;;2.55;;
25153;SDS011;47555;51.038;6.280;2023-02-28T12:42:48;4.78;;;2.65;;
25153;SDS011;47555;51.038;6.280;2023-02-28T12:45:24;5.75;;;2.80;;
25153;SDS011;47555;51.038;6.280;2023-02-28T12:47:57;4.70;;;2.47;;
25153;SDS011;47555;51.038;6.280;2023-02-28T12:50:27;3.17;;;2.58;;
25153;SDS011;47555;51.038;6.280;2023-02-28T12:58:34;4.65;;;2.58;;
25153;SDS011;47555;51.038;6.280;2023-02-28T13:06:42;3.35;;;2.38;;
25153;SDS011;47555;51.038;6.280;2023-02-28T13:09:23;2.78;;;2.25;;
25153;SDS011;47555;51.038;6.280;2023-02-28T13:11:49;3.13;;;2.40;;
25153;SDS011;47555;51.038;6.280;2023-02-28T13:19:33;4.57;;;2.60;;
25153;SDS011;47555;51.038;6.280;2023-02-28T13:22:02;3.50;;;3.20;;
25153;SDS011;47555;51.038;6.280;2023-02-28T13:24:42;4.47;;;3.08;;
25153;SDS011;47555;51.038;6.280;2023-02-28T13:27:12;4.22;;;3.05;;
25153;SDS011;47555;51.038;6.280;2023-02-28T13:35:45;2.95;;;2.47;;
25153;SDS011;47555;51.038;6.280;2023-02-28T13:38:25;3.13;;;2.80;;
25153;SDS011;47555;51.038;6.280;2023-02-28T13:47:22;3.75;;;2.92;;
25153;SDS011;47555;51.038;6.280;2023-02-28T13:54:43;5.85;;;2.63;;
25153;SDS011;47555;51.038;6.280;2023-02-28T13:57:41;3.33;;;3.03;;
25153;SDS011;47555;51.038;6.280;2023-02-28T14:00:19;4.28;;;2.88;;
25153;SDS011;47555;51.038;6.280;2023-02-28T14:09:34;3.05;;;2.72;;
25153;SDS011;47555;51.038;6.280;2023-02-28T14:11:43;3.45;;;2.72;;
25153;SDS011;47555;51.038;6.280;2023-02-28T14:14:53;4.05;;;2.80;;
25153;SDS011;47555;51.038;6.280;2023-02-28T14:17:07;4.20;;;2.80;;
25153;SDS011;47555;51.038;6.280;2023-02-28T14:19:38;4.10;;;2.85;;
25153;SDS011;47555;51.038;6.280;2023-02-28T14:27:21;4.15;;;2.63;;
25153;SDS011;47555;51.038;6.280;2023-02-28T14:38:28;5.65;;;2.97;;
25153;SDS011;47555;51.038;6.280;2023-02-28T14:40:58;4.70;;;2.85;;
25153;SDS011;47555;51.038;6.280;2023-02-28T14:43:28;3.72;;;2.92;;
25153;SDS011;47555;51.038;6.280;2023-02-28T14:46:01;3.25;;;2.60;;
25153;SDS011;47555;51.038;6.280;2023-02-28T14:48:29;3.85;;;2.75;;
25153;SDS011;47555;51.038;6.280;2023-02-28T14:50:56;3.53;;;2.90;;
25153;SDS011;47555;51.038;6.280;2023-02-28T14:53:25;5.07;;;3.30;;
25153;SDS011;47555;51.038;6.280;2023-02-28T14:55:53;4.35;;;2.92;;
25153;SDS011;47555;51.038;6.280;2023-02-28T14:58:24;5.05;;;2.85;;
25153;SDS011;47555;51.038;6.280;2023-02-28T15:00:52;4.65;;;3.00;;
25153;SDS011;47555;51.038;6.280;2023-02-28T15:08:20;5.05;;;3.05;;
25153;SDS011;47555;51.038;6.280;2023-02-28T15:10:53;3.50;;;3.10;;
25153;SDS011;47555;51.038;6.280;2023-02-28T15:13:24;4.68;;;3.03;;
25153;SDS011;47555;51.038;6.280;2023-02-28T15:16:00;4.07;;;3.00;;
25153;SDS011;47555;51.038;6.280;2023-02-28T15:20:58;3.67;;;2.92;;
25153;SDS011;47555;51.038;6.280;2023-02-28T15:23:44;3.22;;;2.83;;
25153;SDS011;47555;51.038;6.280;2023-02-28T15:26:16;5.55;;;2.78;;
25153;SDS011;47555;51.038;6.280;2023-02-28T15:28:46;3.80;;;3.00;;
25153;SDS011;47555;51.038;6.280;2023-02-28T15:31:20;6.65;;;3.00;;
25153;SDS011;47555;51.038;6.280;2023-02-28T15:33:54;3.33;;;2.67;;
25153;SDS011;47555;51.038;6.280;2023-02-28T15:36:21;5.72;;;3.13;;
25153;SDS011;47555;51.038;6.280;2023-02-28T15:38:52;3.38;;;3.03;;
25153;SDS011;47555;51.038;6.280;2023-02-28T15:41:25;4.03;;;3.22;;
25153;SDS011;47555;51.038;6.280;2023-02-28T15:44:22;3.83;;;3.17;;
25153;SDS011;47555;51.038;6.280;2023-02-28T15:47:04;4.22;;;3.13;;
25153;SDS011;47555;51.038;6.280;2023-02-28T15:49:39;4.90;;;3.38;;
25153;SDS011;47555;51.038;6.280;2023-02-28T15:52:15;6.57;;;3.33;;
25153;SDS011;47555;51.038;6.280;2023-02-28T15:54:42;5.20;;;4.03;;
25153;SDS011;47555;51.038;6.280;2023-02-28T15:57:13;5.22;;;3.50;;
25153;SDS011;47555;51.038;6.280;2023-02-28T15:59:59;7.00;;;3.83;;
25153;SDS011;47555;51.038;6.280;2023-02-28T16:02:30;5.72;;;3.90;;
25153;SDS011;47555;51.038;6.280;2023-02-28T16:07:36;5.75;;;3.33;;
25153;SDS011;47555;51.038;6.280;2023-02-28T16:10:06;4.43;;;3.40;;
25153;SDS011;47555;51.038;6.280;2023-02-28T16:12:35;4.32;;;3.63;;
25153;SDS011;47555;51.038;6.280;2023-02-28T16:15:05;5.55;;;3.53;;
25153;SDS011;47555;51.038;6.280;2023-02-28T16:17:46;5.78;;;3.45;;
25153;SDS011;47555;51.038;6.280;2023-02-28T16:20:13;5.53;;;3.42;;
25153;SDS011;47555;51.038;6.280;2023-02-28T16:22:40;4.85;;;3.67;;
25153;SDS011;47555;51.038;6.280;2023-02-28T16:25:07;7.13;;;3.58;;
25153;SDS011;47555;51.038;6.280;2023-02-28T16:27:40;4.55;;;3.40;;
25153;SDS011;47555;51.038;6.280;2023-02-28T16:30:07;5.78;;;3.45;;
25153;SDS011;47555;51.038;6.280;2023-02-28T16:32:42;5.00;;;3.58;;
25153;SDS011;47555;51.038;6.280;2023-02-28T16:35:16;6.10;;;3.30;;
25153;SDS011;47555;51.038;6.280;2023-02-28T16:37:43;6.88;;;3.80;;
25153;SDS011;47555;51.038;6.280;2023-02-28T16:40:19;6.45;;;4.28;;
25153;SDS011;47555;51.038;6.280;2023-02-28T16:42:46;4.32;;;3.42;;
25153;SDS011;47555;51.038;6.280;2023-02-28T16:45:15;5.43;;;3.70;;
25153;SDS011;47555;51.038;6.280;2023-02-28T16:47:51;8.27;;;3.65;;
25153;SDS011;47555;51.038;6.280;2023-02-28T16:50:18;4.65;;;3.60;;
25153;SDS011;47555;51.038;6.280;2023-02-28T16:52:44;5.97;;;3.92;;
25153;SDS011;47555;51.038;6.280;2023-02-28T16:55:10;5.88;;;3.83;;
25153;SDS011;47555;51.038;6.280;2023-02-28T16:57:35;6.50;;;4.32;;
25153;SDS011;47555;51.038;6.280;2023-02-28T17:00:02;3.80;;;3.40;;
25153;SDS011;47555;51.038;6.280;2023-02-28T17:02:28;5.60;;;3.67;;
25153;SDS011;47555;51.038;6.280;2023-02-28T17:04:54;5.38;;;4.18;;
25153;SDS011;47555;51.038;6.280;2023-02-28T17:07:19;4.15;;;3.70;;
25153;SDS011;47555;51.038;6.280;2023-02-28T17:09:45;4.53;;;3.95;;
25153;SDS011;47555;51.038;6.280;2023-02-28T17:12:10;5.15;;;4.03;;
25153;SDS011;47555;51.038;6.280;2023-02-28T17:14:36;6.43;;;4.05;;
25153;SDS011;47555;51.038;6.280;2023-02-28T17:17:04;4.05;;;3.75;;
25153;SDS011;47555;51.038;6.280;2023-02-28T17:19:30;7.70;;;4.10;;
25153;SDS011;47555;51.038;6.280;2023-02-28T17:21:55;6.57;;;4.28;;
25153;SDS011;47555;51.038;6.280;2023-02-28T17:24:21;4.70;;;4.30;;
25153;SDS011;47555;51.038;6.280;2023-02-28T17:26:46;7.05;;;4.40;;
25153;SDS011;47555;51.038;6.280;2023-02-28T17:29:16;6.47;;;4.57;;
25153;SDS011;47555;51.038;6.280;2023-02-28T17:31:46;5.38;;;4.15;;